Time;durP1;ratioP1;P1;durP2;ratioP2;P2;SDS_P1;SDS_P2;PMS_P1;PMS_P2;Temp;Humidity;BMP_temperature;BMP_pressure;BME280_temperature;BME280_humidity;BME280_pressure;Samples;Min_cycle;Max_cycle;Signal;HPM_P1;HPM_P2
2022/08/15 00:01:27;;;;;;;9.95;6.95;;;;;;;28.38;46.64;98838.94;4908614;29;20035;-87
2022/08/15 00:03:56;;;;;;;9.73;7.35;;;;;;;28.39;46.48;98829.88;4905140;29;20490;-85
2022/08/15 00:06:30;;;;;;;10.50;7.15;;;;;;;28.36;46.41;98831.03;4919867;29;20393;-84
2022/08/15 00:08:58;;;;;;;10.55;7.80;;;;;;;28.32;46.53;98826.97;4925649;29;20078;-87
2022/08/15 00:11:32;;;;;;;11.52;7.82;;;;;;;28.35;46.50;98821.31;4923691;29;20028;-88
2022/08/15 00:14:03;;;;;;;9.35;7.78;;;;;;;28.33;46.84;98825.97;4909464;29;20068;-84
2022/08/15 00:16:36;;;;;;;10.40;7.43;;;;;;;28.34;46.48;98835.72;4905846;29;20130;-88
2022/08/15 00:19:15;;;;;;;11.70;7.80;;;;;;;28.33;46.66;98828.66;4922653;29;20025;-83
2022/08/15 00:21:46;;;;;;;8.05;7.10;;;;;;;28.33;46.82;98828.66;4923195;29;20032;-83
2022/08/15 00:24:18;;;;;;;10.77;7.43;;;;;;;28.34;46.66;98824.16;4916722;29;20035;-87
2022/08/15 00:26:48;;;;;;;11.23;8.35;;;;;;;28.32;46.90;98821.63;4911129;29;20047;-88
2022/08/15 00:29:15;;;;;;;11.95;8.13;;;;;;;28.31;47.06;98825.31;4905669;29;20036;-86
2022/08/15 00:31:42;;;;;;;11.90;8.63;;;;;;;28.31;47.26;98825.31;4903392;29;20036;-85
2022/08/15 00:34:13;;;;;;;13.82;8.95;;;;;;;28.33;47.48;98823.28;4918099;29;20063;-86
2022/08/15 00:36:40;;;;;;;11.13;8.52;;;;;;;28.32;47.26;98821.63;4918063;29;20032;-84
2022/08/15 00:39:07;;;;;;;11.27;8.20;;;;;;;28.33;47.51;98823.28;4902845;29;20040;-86
2022/08/15 00:41:42;;;;;;;11.15;8.88;;;;;;;28.31;47.24;98822.63;4903091;29;20578;-85
2022/08/15 00:44:11;;;;;;;10.45;8.73;;;;;;;28.30;47.11;98817.41;4902229;29;20068;-86
2022/08/15 00:46:38;;;;;;;10.85;8.43;;;;;;;28.28;47.09;98821.09;4902377;29;20122;-84
2022/08/15 00:49:05;;;;;;;11.15;7.63;;;;;;;28.28;46.95;98821.09;4918793;29;20098;-85
2022/08/15 00:51:55;;;;;;;11.98;8.48;;;;;;;28.27;46.93;98818.56;4902222;29;20152;-86
2022/08/15 00:54:28;;;;;;;9.35;7.90;;;;;;;28.27;46.56;98822.09;4918246;29;20110;-86
2022/08/15 00:57:03;;;;;;;10.55;8.13;;;;;;;28.27;46.50;98821.25;4902053;29;20024;-83
2022/08/15 00:59:33;;;;;;;9.85;7.70;;;;;;;28.22;46.67;98824.41;4902404;29;20032;-84
2022/08/15 01:02:04;;;;;;;10.95;7.20;;;;;;;28.24;46.16;98824.25;4918020;29;20378;-84
2022/08/15 01:04:30;;;;;;;9.10;7.32;;;;;;;28.21;46.40;98827.19;4917577;29;20068;-84
2022/08/15 01:06:59;;;;;;;9.75;7.07;;;;;;;28.21;46.39;98819.16;4902004;29;20115;-85
2022/08/15 01:09:27;;;;;;;8.77;6.97;;;;;;;28.19;46.07;98822.03;4903963;29;20123;-86
2022/08/15 01:12:02;;;;;;;10.68;7.32;;;;;;;28.18;45.92;98824.84;4903494;29;20032;-86
2022/08/15 01:14:29;;;;;;;9.40;6.57;;;;;;;28.18;45.92;98824.84;4918805;29;20123;-85
2022/08/15 01:16:56;;;;;;;10.15;7.25;;;;;;;28.16;46.05;98827.69;4919254;29;20450;-85
2022/08/15 01:19:29;;;;;;;9.65;6.47;;;;;;;28.15;45.89;98826.81;4919136;29;20084;-86
2022/08/15 01:22:20;;;;;;;9.18;6.30;;;;;;;28.12;45.85;98824.47;4918338;29;20028;-85
2022/08/15 01:25:00;;;;;;;9.50;6.90;;;;;;;28.12;45.44;98827.16;4919152;29;20036;-84
2022/08/15 01:27:31;;;;;;;9.68;6.30;;;;;;;28.12;45.47;98827.16;4902108;29;20032;-86
2022/08/15 01:29:59;;;;;;;9.60;6.72;;;;;;;28.10;45.50;98831.00;4901824;29;20024;-86
2022/08/15 01:32:25;;;;;;;10.82;6.80;;;;;;;28.08;45.63;98823.09;4917776;29;20032;-87
2022/08/15 01:34:52;;;;;;;9.02;6.30;;;;;;;28.05;45.27;98820.75;4902000;29;20059;-84
2022/08/15 01:37:19;;;;;;;10.05;6.38;;;;;;;28.04;45.48;98819.06;4918948;29;20025;-85
2022/08/15 01:40:03;;;;;;;9.75;6.82;;;;;;;28.03;45.36;98817.34;4919949;29;20024;-85
2022/08/15 01:42:41;;;;;;;9.40;6.28;;;;;;;28.03;45.17;98821.88;4904294;29;20039;-86
2022/08/15 01:45:15;;;;;;;10.05;6.63;;;;;;;28.00;45.41;98823.88;4919352;29;20366;-84
2022/08/15 01:47:54;;;;;;;11.20;6.60;;;;;;;28.00;45.22;98821.19;4903788;29;20039;-87
2022/08/15 01:50:27;;;;;;;8.63;6.15;;;;;;;27.98;45.60;98814.28;4905413;29;20331;-86
2022/08/15 01:53:17;;;;;;;6.85;5.53;;;;;;;27.98;45.20;98819.66;4922210;29;20087;-87
2022/08/15 01:55:48;;;;;;;10.80;6.40;;;;;;;27.96;45.12;98821.66;4923194;29;20032;-87
2022/08/15 01:58:14;;;;;;;8.60;6.65;;;;;;;27.96;45.14;98816.28;4905951;29;20031;-85
2022/08/15 02:00:51;;;;;;;7.93;6.22;;;;;;;27.96;45.40;98814.47;4922567;29;20536;-87
2022/08/15 02:03:18;;;;;;;10.60;6.38;;;;;;;27.93;45.57;98813.94;4908569;29;20065;-85
2022/08/15 02:05:46;;;;;;;9.32;5.75;;;;;;;27.92;45.16;98815.75;4906052;29;20039;-85
2022/08/15 02:08:13;;;;;;;9.60;6.53;;;;;;;27.94;45.32;98818.31;4909350;29;20059;-86
2022/08/15 02:10:43;;;;;;;8.50;5.93;;;;;;;27.91;45.27;98819.44;4906638;29;20361;-86
2022/08/15 02:13:09;;;;;;;9.98;6.82;;;;;;;27.93;45.54;98819.31;4925328;29;20020;-87
2022/08/15 02:15:35;;;;;;;10.48;6.28;;;;;;;27.91;45.47;98821.28;4909877;29;20027;-88
2022/08/15 02:18:02;;;;;;;9.32;6.72;;;;;;;27.90;45.36;98812.41;4911532;29;20043;-87
2022/08/15 02:20:28;;;;;;;8.77;6.13;;;;;;;27.89;45.49;98813.38;4913114;29;20032;-87
2022/08/15 02:22:57;;;;;;;9.43;6.43;;;;;;;27.88;45.32;98812.56;4914292;29;20032;-89
2022/08/15 02:25:27;;;;;;;9.60;6.07;;;;;;;27.86;45.45;98809.19;4912561;29;20039;-88
2022/08/15 02:27:55;;;;;;;9.20;6.50;;;;;;;27.83;45.52;98806.81;4907361;29;20028;-86
2022/08/15 02:30:23;;;;;;;8.10;6.45;;;;;;;27.85;45.37;98814.72;4904654;29;20051;-86
2022/08/15 02:32:51;;;;;;;12.07;7.03;;;;;;;27.85;45.34;98809.34;4920371;29;20038;-86
2022/08/15 02:35:18;;;;;;;7.50;5.78;;;;;;;27.85;45.54;98809.34;4920979;29;20079;-85
2022/08/15 02:37:44;;;;;;;8.05;6.30;;;;;;;27.83;45.43;98814.00;4904429;29;20450;-84
2022/08/15 02:40:13;;;;;;;9.63;5.90;;;;;;;27.82;45.68;98815.84;4920179;29;20488;-85
2022/08/15 02:42:39;;;;;;;8.68;6.53;;;;;;;27.83;45.33;98816.69;4920030;29;20040;-84
2022/08/15 02:45:10;;;;;;;9.50;6.03;;;;;;;27.81;45.54;98819.53;4905472;29;20082;-84
2022/08/15 02:47:37;;;;;;;7.88;5.88;;;;;;;27.81;45.32;98814.19;4905074;29;20064;-86
2022/08/15 02:50:05;;;;;;;8.55;6.05;;;;;;;27.80;45.89;98812.47;4920085;29;20036;-85
2022/08/15 02:52:32;;;;;;;8.07;6.13;;;;;;;27.81;45.57;98814.19;4919849;29;20450;-86
2022/08/15 02:54:59;;;;;;;9.45;6.22;;;;;;;27.80;45.39;98817.81;4919764;29;20032;-85
2022/08/15 02:57:32;;;;;;;8.75;6.32;;;;;;;27.79;45.70;98808.09;4904028;29;20024;-86
2022/08/15 02:59:58;;;;;;;9.13;6.75;;;;;;;27.78;45.82;98817.16;4904205;29;20389;-86
2022/08/15 03:02:28;;;;;;;8.65;6.07;;;;;;;27.77;45.47;98817.31;4922625;29;20028;-87
2022/08/15 03:04:58;;;;;;;9.90;6.20;;;;;;;27.76;45.47;98816.47;4904409;29;20039;-87
2022/08/15 03:07:23;;;;;;;9.73;5.95;;;;;;;27.74;45.62;98813.09;4922833;29;20032;-87
2022/08/15 03:09:49;;;;;;;9.27;5.68;;;;;;;27.74;45.74;98815.75;4904040;29;20028;-87
2022/08/15 03:12:15;;;;;;;9.18;6.35;;;;;;;27.72;45.64;98809.72;4920507;29;20047;-84
2022/08/15 03:14:41;;;;;;;9.23;6.47;;;;;;;27.73;45.33;98812.25;4920381;29;20449;-85
2022/08/15 03:17:09;;;;;;;8.95;6.50;;;;;;;27.71;45.43;98803.50;4919477;29;20188;-84
2022/08/15 03:19:39;;;;;;;7.05;5.40;;;;;;;27.70;45.76;98811.72;4903695;29;20370;-85
2022/08/15 03:22:07;;;;;;;11.70;6.68;;;;;;;27.69;45.47;98804.69;4918951;29;20482;-85
2022/08/15 03:24:32;;;;;;;8.52;6.25;;;;;;;27.69;45.57;98805.50;4903569;29;20461;-87
2022/08/15 03:26:58;;;;;;;8.68;6.15;;;;;;;27.68;45.76;98803.84;4920062;29;20059;-85
2022/08/15 03:29:24;;;;;;;8.70;6.10;;;;;;;27.70;45.59;98801.00;4903473;29;20042;-85
2022/08/15 03:31:51;;;;;;;8.88;6.25;;;;;;;27.66;45.65;98807.66;4904802;29;20123;-85
2022/08/15 03:34:21;;;;;;;8.93;6.25;;;;;;;27.65;45.77;98803.31;4903619;29;20071;-86
2022/08/15 03:36:46;;;;;;;9.38;6.45;;;;;;;27.64;45.60;98807.00;4919387;29;20110;-85
2022/08/15 03:39:13;;;;;;;10.23;6.38;;;;;;;27.66;45.47;98804.97;4903202;29;20458;-85
2022/08/15 03:41:43;;;;;;;11.60;6.63;;;;;;;27.63;45.44;98810.63;4905712;29;20028;-87
2022/08/15 03:44:10;;;;;;;9.02;6.35;;;;;;;27.64;45.38;98802.44;4903118;29;20051;-86
2022/08/15 03:46:36;;;;;;;8.75;6.60;;;;;;;27.63;45.32;98805.28;4902937;29;20525;-86
2022/08/15 03:49:02;;;;;;;9.93;7.07;;;;;;;27.64;45.30;98807.00;4920188;29;20032;-87
2022/08/15 03:51:28;;;;;;;8.38;6.18;;;;;;;27.61;45.69;98808.97;4923736;29;20378;-85
2022/08/15 03:53:58;;;;;;;10.10;6.32;;;;;;;27.62;45.57;98801.78;4919763;29;20032;-84
2022/08/15 03:56:27;;;;;;;8.88;6.90;;;;;;;27.61;45.21;98803.59;4902592;29;20119;-84
2022/08/15 03:58:55;;;;;;;11.05;6.43;;;;;;;27.60;45.62;98801.09;4918584;29;20094;-84
2022/08/15 04:01:24;;;;;;;9.18;6.50;;;;;;;27.58;45.70;98798.56;4902816;29;20530;-84
2022/08/15 04:03:51;;;;;;;7.95;5.95;;;;;;;27.59;45.26;98804.75;4902754;29;20059;-84
2022/08/15 04:06:21;;;;;;;9.30;5.95;;;;;;;27.57;45.23;98796.84;4902997;29;20032;-85
2022/08/15 04:08:48;;;;;;;11.13;6.47;;;;;;;27.58;45.19;98795.03;4918507;29;20052;-84
2022/08/15 04:11:16;;;;;;;8.90;6.22;;;;;;;27.56;45.41;98800.50;4902858;29;20553;-84
2022/08/15 04:13:43;;;;;;;9.57;6.40;;;;;;;27.55;45.46;98801.50;4919815;29;20032;-84
2022/08/15 04:16:09;;;;;;;9.43;6.35;;;;;;;27.54;45.54;98797.16;4903293;29;20119;-85
2022/08/15 04:18:36;;;;;;;9.05;6.30;;;;;;;27.55;45.64;98798.00;4903625;29;20039;-86
2022/08/15 04:21:06;;;;;;;9.65;6.20;;;;;;;27.54;45.32;98796.28;4920874;29;20059;-85
2022/08/15 04:23:33;;;;;;;9.40;6.70;;;;;;;27.52;45.19;98799.16;4904901;29;20032;-85
2022/08/15 04:25:59;;;;;;;9.55;6.47;;;;;;;27.53;45.50;98803.50;4919765;29;20481;-87
2022/08/15 04:28:29;;;;;;;9.77;5.97;;;;;;;27.52;45.30;98804.50;4904257;29;20028;-86
2022/08/15 04:30:54;;;;;;;9.32;6.72;;;;;;;27.52;45.30;98804.50;4904584;29;20036;-86
2022/08/15 04:33:27;;;;;;;11.07;7.28;;;;;;;27.52;45.22;98804.50;4906516;29;20043;-87
2022/08/15 04:36:13;;;;;;;8.32;6.20;;;;;;;27.50;45.45;98801.13;4907826;29;20112;-87
2022/08/15 04:38:41;;;;;;;8.43;6.38;;;;;;;27.51;45.01;98797.47;4926162;29;20019;-88
2022/08/15 04:41:08;;;;;;;8.38;6.43;;;;;;;27.49;45.14;98794.06;4925377;29;20099;-88
2022/08/15 04:43:35;;;;;;;8.57;6.18;;;;;;;27.46;44.91;98797.91;4909521;29;20032;-87
2022/08/15 04:46:02;;;;;;;10.57;6.78;;;;;;;27.46;45.02;98799.75;4903031;29;20024;-86
2022/08/15 04:48:28;;;;;;;8.32;6.05;;;;;;;27.44;44.66;98797.22;4919352;29;20087;-83
2022/08/15 04:50:57;;;;;;;8.73;6.00;;;;;;;27.45;44.35;98787.34;4917900;29;20032;-84
2022/08/15 04:53:25;;;;;;;10.15;7.05;;;;;;;27.41;44.61;98791.31;4917740;29;20103;-84
2022/08/15 04:55:52;;;;;;;9.23;6.28;;;;;;;27.41;44.48;98780.63;4917766;29;20489;-84
2022/08/15 04:58:18;;;;;;;9.30;6.25;;;;;;;27.41;44.34;98784.13;4901826;29;20024;-84
2022/08/15 05:01:07;;;;;;;8.52;5.85;;;;;;;27.38;44.40;98787.13;4917675;29;20037;-84
2022/08/15 05:03:39;;;;;;;8.98;6.25;;;;;;;27.38;44.33;98791.63;4917378;29;20484;-84
2022/08/15 05:06:08;;;;;;;7.88;5.70;;;;;;;27.38;44.27;98788.94;4901819;29;20457;-84
2022/08/15 05:08:36;;;;;;;7.30;5.75;;;;;;;27.37;44.34;98801.50;4918505;29;20450;-84
2022/08/15 05:11:09;;;;;;;11.27;6.53;;;;;;;27.37;43.94;98789.94;4901964;29;20028;-85
2022/08/15 05:13:37;;;;;;;11.52;6.68;;;;;;;27.36;44.40;98793.63;4918292;29;20028;-85
2022/08/15 05:16:07;;;;;;;9.18;6.43;;;;;;;27.33;44.33;98798.28;4918988;29;20107;-86
2022/08/15 05:18:35;;;;;;;10.05;5.85;;;;;;;27.32;44.25;98801.94;4904280;29;20046;-89
2022/08/15 05:21:01;;;;;;;9.93;6.13;;;;;;;27.31;44.21;98802.94;4918781;29;20107;-86
2022/08/15 05:23:28;;;;;;;11.02;6.40;;;;;;;27.28;43.94;98797.91;4905152;29;20114;-86
2022/08/15 05:25:56;;;;;;;9.48;5.47;;;;;;;27.29;44.33;98798.72;4905539;29;20035;-86
2022/08/15 05:28:28;;;;;;;8.57;6.03;;;;;;;27.28;43.87;98800.59;4905639;29;20099;-86
2022/08/15 05:31:01;;;;;;;7.40;5.78;;;;;;;27.28;44.04;98810.44;4922331;29;20111;-84
2022/08/15 05:33:29;;;;;;;8.98;6.20;;;;;;;27.24;44.35;98798.34;4925737;29;20119;-86
2022/08/15 05:35:58;;;;;;;7.07;5.32;;;;;;;27.21;44.41;98802.16;4921184;29;20050;-86
2022/08/15 05:38:29;;;;;;;8.02;5.78;;;;;;;27.20;44.20;98801.34;4921213;29;20060;-85
2022/08/15 05:40:58;;;;;;;10.60;6.95;;;;;;;27.21;44.30;98796.78;4905162;29;20028;-84
2022/08/15 05:43:36;;;;;;;8.45;7.05;;;;;;;27.22;44.17;98798.50;4922456;29;20035;-85
2022/08/15 05:46:40;;;;;;;7.70;6.03;;;;;;;27.22;44.54;98798.50;4920798;29;20036;-84
2022/08/15 05:49:12;;;;;;;9.50;6.78;;;;;;;27.22;44.15;98806.53;4904627;29;20052;-85
2022/08/15 05:52:01;;;;;;;8.45;6.22;;;;;;;27.21;44.36;98811.03;4920810;29;20032;-86
2022/08/15 05:54:43;;;;;;;9.38;6.57;;;;;;;27.23;44.45;98810.91;4904822;29;20475;-84
2022/08/15 05:57:18;;;;;;;8.40;6.60;;;;;;;27.21;44.43;98807.50;4904616;29;20497;-85
2022/08/15 05:59:50;;;;;;;11.73;5.80;;;;;;;27.19;44.75;98810.38;4921456;29;20469;-83
2022/08/15 06:03:00;;;;;;;8.45;6.20;;;;;;;27.20;44.59;98800.47;4906403;29;20047;-84
2022/08/15 06:05:32;;;;;;;7.65;6.15;;;;;;;27.17;44.51;98800.78;4906203;29;20084;-86
2022/08/15 06:08:03;;;;;;;9.38;6.50;;;;;;;27.16;44.40;98805.28;4905411;29;20417;-86
2022/08/15 06:10:41;;;;;;;9.60;6.72;;;;;;;27.17;44.76;98814.19;4904620;29;20024;-85
2022/08/15 06:13:12;;;;;;;9.15;6.55;;;;;;;27.15;44.67;98818.81;4920416;29;20483;-86
2022/08/15 06:15:53;;;;;;;8.80;6.57;;;;;;;27.17;44.87;98822.22;4920647;29;20024;-86
2022/08/15 06:18:23;;;;;;;10.10;6.60;;;;;;;27.14;44.93;98822.50;4920586;29;20075;-85
2022/08/15 06:21:30;;;;;;;7.88;6.45;;;;;;;27.15;44.61;98824.19;4905081;29;20047;-86
2022/08/15 06:24:15;;;;;;;10.05;6.43;;;;;;;27.14;44.68;98814.47;4905226;29;20028;-85
2022/08/15 06:26:59;;;;;;;8.93;6.43;;;;;;;27.13;44.60;98815.47;4920580;29;20032;-84
2022/08/15 06:29:59;;;;;;;9.63;6.45;;;;;;;27.14;44.74;98822.50;4920457;29;20046;-84
2022/08/15 06:32:57;;;;;;;11.77;6.13;;;;;;;27.14;44.62;98809.13;4921242;29;20115;-85
2022/08/15 06:35:27;;;;;;;9.35;7.20;;;;;;;27.14;44.88;98819.81;4920397;29;20052;-87
2022/08/15 06:38:12;;;;;;;10.48;6.30;;;;;;;27.10;45.10;98819.28;4920961;29;20031;-87
2022/08/15 06:41:10;;;;;;;9.55;6.05;;;;;;;27.11;45.08;98820.97;4920943;29;20127;-85
2022/08/15 06:43:39;;;;;;;8.93;6.10;;;;;;;27.11;45.21;98823.63;4889436;29;20052;-87
2022/08/15 06:46:06;;;;;;;9.02;6.68;;;;;;;27.11;44.89;98828.16;4906327;29;20035;-86
2022/08/15 06:48:39;;;;;;;10.73;6.38;;;;;;;27.11;44.67;98825.50;4907653;29;20032;-86
2022/08/15 06:51:07;;;;;;;8.23;6.63;;;;;;;27.10;44.78;98826.50;4922121;29;20466;-87
2022/08/15 06:53:39;;;;;;;9.40;6.75;;;;;;;27.08;44.81;98824.78;4923246;29;20039;-89
2022/08/15 06:56:17;;;;;;;8.48;6.43;;;;;;;27.07;44.94;98825.78;4907096;29;20036;-86
2022/08/15 06:59:05;;;;;;;10.45;6.78;;;;;;;27.07;45.00;98825.78;4923463;29;20028;-87
2022/08/15 07:01:53;;;;;;;11.27;6.88;;;;;;;27.07;44.91;98825.78;4929465;29;20039;-87
2022/08/15 07:04:59;;;;;;;9.27;6.35;;;;;;;27.08;45.16;98830.13;4928292;29;20032;-89
2022/08/15 07:07:44;;;;;;;11.82;7.13;;;;;;;27.06;45.36;98826.78;4926493;29;20485;-83
2022/08/15 07:10:59;;;;;;;11.15;7.15;;;;;;;27.08;45.51;98823.97;4926264;29;20042;-83
2022/08/15 07:13:31;;;;;;;14.70;8.00;;;;;;;27.07;45.71;98820.41;4923357;29;20189;-84
2022/08/15 07:16:25;;;;;;;11.27;6.88;;;;;;;27.10;45.42;98829.16;4891354;29;20095;-84
2022/08/15 07:18:57;;;;;;;12.20;6.50;;;;;;;27.05;45.58;98819.75;4923126;29;20031;-84
2022/08/15 07:21:25;;;;;;;12.35;6.78;;;;;;;27.06;45.55;98820.56;4906799;29;20036;-85
2022/08/15 07:24:17;;;;;;;10.15;6.32;;;;;;;27.06;45.10;98826.78;4905922;29;20056;-85
2022/08/15 07:26:59;;;;;;;9.90;6.85;;;;;;;27.06;45.50;98821.41;4920672;29;20044;-85
2022/08/15 07:29:29;;;;;;;11.18;7.03;;;;;;;27.06;45.29;98821.41;4922497;29;20044;-84
2022/08/15 07:32:09;;;;;;;15.82;7.55;;;;;;;27.06;45.27;98826.78;4921808;29;20031;-86
2022/08/15 07:34:53;;;;;;;10.40;7.28;;;;;;;27.04;45.22;98820.75;4906401;29;20494;-85
2022/08/15 07:37:20;;;;;;;10.32;6.28;;;;;;;27.06;45.35;98817.88;4921813;29;20051;-85
2022/08/15 07:40:17;;;;;;;10.63;6.70;;;;;;;27.05;45.26;98819.75;4903612;29;20465;-86
2022/08/15 07:42:45;;;;;;;8.45;6.63;;;;;;;27.03;45.17;98827.06;4911017;29;20339;-86
2022/08/15 07:45:37;;;;;;;10.23;6.82;;;;;;;27.03;45.47;98818.19;4921805;29;20028;-86
2022/08/15 07:48:17;;;;;;;9.50;6.70;;;;;;;27.02;45.29;98825.38;4920724;29;20122;-87
2022/08/15 07:51:04;;;;;;;9.82;6.72;;;;;;;27.03;45.29;98821.69;4921124;29;20054;-86
2022/08/15 07:53:33;;;;;;;9.18;6.30;;;;;;;27.03;45.17;98816.34;4921014;29;20359;-85
2022/08/15 07:56:12;;;;;;;9.02;6.40;;;;;;;27.01;44.93;98823.69;4906369;29;20048;-87
2022/08/15 07:58:51;;;;;;;10.20;6.45;;;;;;;26.99;45.13;98820.34;4921450;29;20032;-85
2022/08/15 08:01:32;;;;;;;10.55;6.57;;;;;;;26.98;45.26;98817.81;4906198;29;20099;-85
2022/08/15 08:04:29;;;;;;;9.27;7.00;;;;;;;26.98;45.27;98818.66;4906599;29;20373;-86
2022/08/15 08:07:55;;;;;;;10.80;7.10;;;;;;;27.01;44.89;98818.34;4902345;29;20044;-87
2022/08/15 08:11:09;;;;;;;11.80;7.55;;;;;;;26.98;45.17;98818.66;4900878;29;20411;-85
2022/08/15 08:17:30;;;;;;;;;;;;;;;;;;;;;
2022/08/15 08:20:17;;;;;;;8.60;6.38;;;;;;;26.96;45.08;98814.44;4889951;29;20105;-86
2022/08/15 08:23:09;;;;;;;;;;;;;;;26.95;45.17;98813.59;4928758;29;20056;-87
2022/08/15 08:26:41;;;;;;;8.95;6.68;;;;;;;26.95;45.16;98824.28;4924076;29;19922;-86
2022/08/15 08:30:03;;;;;;;9.43;7.35;;;;;;;26.94;45.17;98811.91;4910541;29;20043;-87
2022/08/15 08:33:02;;;;;;;9.05;6.30;;;;;;;26.96;45.17;98819.78;4926948;29;20039;-87
2022/08/15 08:35:54;;;;;;;9.35;6.93;;;;;;;26.95;45.28;98821.63;4921161;29;20048;-85
2022/08/15 08:38:46;;;;;;;10.55;6.20;;;;;;;26.95;45.60;98824.28;4919535;29;20115;-86
2022/08/15 08:41:39;;;;;;;9.48;6.10;;;;;;;26.93;45.40;98827.09;4903359;29;20099;-87
2022/08/15 08:44:14;;;;;;;8.18;6.75;;;;;;;26.96;45.42;98825.97;4902942;29;20040;-85
2022/08/15 08:50:21;;;;;;;11.07;6.88;;;;;;;26.97;45.53;98818.78;4923691;29;20050;-87
2022/08/15 08:53:07;;;;;;;10.00;7.10;;;;;;;26.96;45.63;98825.97;4922613;29;20462;-87
2022/08/15 08:59:35;;;;;;;10.43;6.50;;;;;;;27.00;45.37;98831.88;4831751;29;20070;-86
2022/08/15 09:02:29;;;;;;;8.88;6.95;;;;;;;26.97;45.48;98827.66;4924420;29;20040;-86
2022/08/15 09:06:06;;;;;;;;;;;;;;;;;;;;;
2022/08/15 09:08:53;;;;;;;9.18;6.72;;;;;;;26.96;45.79;98831.31;4922518;29;20033;-90
2022/08/15 09:11:34;;;;;;;13.07;6.90;;;;;;;26.98;45.87;98840.06;4905662;29;20036;-87
2022/08/15 09:14:20;;;;;;;11.38;6.85;;;;;;;26.99;45.50;98835.53;4921804;29;20056;-89
2022/08/15 09:16:51;;;;;;;10.30;7.15;;;;;;;26.98;45.72;98834.72;4924097;29;20059;-88
2022/08/15 09:19:32;;;;;;;11.07;6.93;;;;;;;27.01;45.40;98834.41;4907537;29;20048;-88
2022/08/15 09:21:58;;;;;;;9.57;7.07;;;;;;;27.02;45.51;98829.91;4908985;29;20044;-86
2022/08/15 09:24:24;;;;;;;9.02;7.05;;;;;;;27.00;45.82;98838.09;4912155;29;20036;-89
2022/08/15 09:27:01;;;;;;;11.60;6.57;;;;;;;26.96;45.45;98834.00;4931143;29;20537;-90
2022/08/15 09:29:30;;;;;;;7.85;5.55;;;;;;;26.90;45.17;98831.88;4926456;29;20028;-85
2022/08/15 09:32:32;;;;;;;7.40;5.50;;;;;;;26.92;45.26;98841.50;4904941;29;20099;-88
2022/08/15 09:35:15;;;;;;;8.77;6.05;;;;;;;26.95;45.09;98840.34;4902978;29;20063;-86
2022/08/15 09:37:56;;;;;;;11.88;6.80;;;;;;;26.98;44.93;98839.22;4919980;29;20393;-86
2022/08/15 09:40:48;;;;;;;9.52;6.32;;;;;;;26.94;45.21;98836.81;4926404;29;20042;-86
2022/08/15 09:43:37;;;;;;;10.00;5.75;;;;;;;26.92;44.88;98841.50;4922608;29;20558;-89
2022/08/15 09:46:05;;;;;;;8.60;5.53;;;;;;;26.96;44.96;98834.00;4918875;29;20074;-83
2022/08/15 09:48:59;;;;;;;9.32;5.65;;;;;;;26.96;44.96;98831.31;4917542;29;20092;-84
2022/08/15 09:52:05;;;;;;;8.45;6.00;;;;;;;26.96;45.10;98836.69;4917367;29;20056;-86
2022/08/15 09:54:48;;;;;;;7.13;6.10;;;;;;;26.99;45.12;98828.38;4917582;29;20044;-85
2022/08/15 09:57:34;;;;;;;12.00;6.72;;;;;;;27.00;45.03;98830.06;4918352;29;20339;-84
2022/08/15 10:00:42;;;;;;;9.80;6.40;;;;;;;27.01;44.89;98826.38;4901686;29;20024;-85
2022/08/15 10:03:24;;;;;;;8.85;6.72;;;;;;;27.04;45.06;98828.78;4912665;29;20040;-83
2022/08/15 10:06:04;;;;;;;10.23;6.70;;;;;;;27.06;45.03;98826.78;4901364;29;20488;-83
2022/08/15 10:08:54;;;;;;;13.32;7.72;;;;;;;27.07;45.60;98828.44;4904372;29;20126;-86
2022/08/15 10:11:38;;;;;;;10.05;7.40;;;;;;;27.08;45.34;98829.31;4921741;29;20032;-84
2022/08/15 10:14:34;;;;;;;10.60;8.57;;;;;;;27.11;45.35;98817.47;4920222;29;20079;-86
2022/08/15 10:17:21;;;;;;;12.23;9.13;;;;;;;27.14;45.44;98817.16;4897257;29;20119;-85
2022/08/15 10:19:47;;;;;;;13.50;10.10;;;;;;;27.16;45.23;98820.53;4920775;29;20442;-87
2022/08/15 10:22:23;;;;;;;13.45;9.93;;;;;;;27.17;45.44;98811.50;4922455;29;20034;-86
2022/08/15 10:25:48;;;;;;;13.48;10.32;;;;;;;27.21;45.27;98818.22;4922269;29;20028;-87
2022/08/15 10:28:13;;;;;;;18.17;10.68;;;;;;;27.20;45.27;98811.19;4925081;29;20044;-88
2022/08/15 10:30:44;;;;;;;15.80;11.48;;;;;;;27.24;44.97;98815.25;4922231;29;20111;-85
2022/08/15 10:33:38;;;;;;;14.75;10.77;;;;;;;27.25;44.77;98800.88;4925242;29;20070;-85
2022/08/15 10:36:15;;;;;;;20.63;12.18;;;;;;;27.26;45.37;98802.56;4905613;29;20048;-85
2022/08/15 10:38:50;;;;;;;17.75;12.35;;;;;;;27.30;45.07;98800.41;4904596;29;20335;-85
2022/08/15 10:41:53;;;;;;;16.58;12.60;;;;;;;27.31;44.84;98804.78;4920300;29;20042;-85
2022/08/15 10:44:22;;;;;;;20.65;13.15;;;;;;;27.33;45.03;98806.34;4920110;29;20043;-86
2022/08/15 10:46:56;;;;;;;17.25;11.40;;;;;;;27.36;45.02;98804.34;4921116;29;20028;-84
2022/08/15 10:49:47;;;;;;;23.02;13.40;;;;;;;27.38;44.72;98791.63;4920709;29;20037;-86
2022/08/15 10:52:40;;;;;;;31.27;13.75;;;;;;;27.37;44.78;98789.94;4904589;29;20025;-85
2022/08/15 10:55:27;;;;;;;23.52;13.93;;;;;;;27.40;44.82;98786.97;4920716;29;20112;-87
2022/08/15 10:57:59;;;;;;;26.50;13.75;;;;;;;27.41;44.89;98786.78;4905152;29;20043;-85
2022/08/15 11:00:45;;;;;;;18.27;11.98;;;;;;;27.46;44.30;98783.69;4904884;29;20028;-86
2022/08/15 11:03:34;;;;;;;21.73;12.27;;;;;;;27.46;44.46;98789.03;4905202;29;20031;-86
2022/08/15 11:06:07;;;;;;;21.92;13.40;;;;;;;27.45;44.50;98782.00;4904069;29;20032;-85
2022/08/15 11:08:46;;;;;;;20.45;11.45;;;;;;;27.48;44.40;98787.03;4907023;29;20488;-89
2022/08/15 11:11:14;;;;;;;21.92;12.95;;;;;;;27.49;44.28;98778.00;4929650;29;20028;-89
2022/08/15 11:13:50;;;;;;;18.30;12.98;;;;;;;27.50;44.56;98782.34;4911374;29;20042;-89
2022/08/15 11:16:24;;;;;;;18.02;12.70;;;;;;;27.53;44.28;98778.53;4915039;29;20088;-88
2022/08/15 11:18:52;;;;;;;20.88;13.93;;;;;;;27.54;44.33;98775.72;4933134;29;20028;-88
2022/08/15 11:21:27;;;;;;;19.13;15.43;;;;;;;27.54;44.33;98765.00;4932388;29;20039;-88
2022/08/15 11:23:57;;;;;;;10.45;9.35;;;;;;;27.60;43.79;98775.13;4911476;29;20071;-89
2022/08/15 11:26:32;;;;;;;11.20;8.80;;;;;;;27.65;43.49;98758.56;4924530;29;20028;-87
2022/08/15 11:29:18;;;;;;;9.85;7.90;;;;;;;27.66;42.99;98762.09;4925656;29;20354;-86
2022/08/15 11:31:55;;;;;;;10.65;8.15;;;;;;;27.62;43.14;98761.56;4915094;29;20031;-90
2022/08/15 11:34:36;;;;;;;11.43;7.13;;;;;;;27.62;42.95;98756.22;4909607;29;20062;-87
2022/08/15 11:38:16;;;;;;;11.50;8.02;;;;;;;27.64;43.50;98758.75;4921273;29;20024;-88
2022/08/15 11:40:52;;;;;;;9.65;8.30;;;;;;;27.63;43.44;98752.53;4906863;29;20036;-87
2022/08/15 11:43:50;;;;;;;9.05;7.53;;;;;;;27.66;43.16;98748.72;4928668;29;20115;-87
2022/08/15 11:46:37;;;;;;;10.63;8.38;;;;;;;27.69;43.40;98745.72;4930263;29;20028;-87
2022/08/15 11:49:13;;;;;;;9.80;8.15;;;;;;;27.70;42.86;98736.69;4907157;29;20036;-86
2022/08/15 11:51:59;;;;;;;8.82;7.35;;;;;;;27.71;43.02;98733.00;4897459;29;20047;-85
2022/08/15 11:54:35;;;;;;;12.40;8.02;;;;;;;27.73;42.77;98731.00;4904944;29;20028;-86
2022/08/15 11:57:07;;;;;;;6.55;5.45;;;;;;;27.78;42.97;98734.06;4908229;29;20119;-87
2022/08/15 11:59:39;;;;;;;7.20;5.40;;;;;;;27.79;42.46;98730.38;4919917;29;20024;-86
2022/08/15 12:02:11;;;;;;;9.27;6.35;;;;;;;27.78;42.20;98728.69;4903801;29;20048;-86
2022/08/15 12:04:40;;;;;;;6.90;6.05;;;;;;;27.79;41.79;98725.00;4919777;29;20043;-84
2022/08/15 12:07:28;;;;;;;7.70;5.90;;;;;;;27.77;41.90;98724.34;4904025;29;20087;-85
2022/08/15 12:10:05;;;;;;;8.10;6.10;;;;;;;27.79;42.09;98727.69;4904504;29;20096;-86
2022/08/15 12:12:45;;;;;;;6.53;5.25;;;;;;;27.79;42.38;98716.97;4904349;29;20031;-85
2022/08/15 12:15:17;;;;;;;7.32;5.75;;;;;;;27.80;42.22;98721.34;4919712;29;20050;-86
2022/08/15 12:18:02;;;;;;;6.20;4.85;;;;;;;27.82;41.91;98715.81;4920215;29;20450;-86
2022/08/15 12:20:43;;;;;;;9.45;6.05;;;;;;;27.87;41.90;98726.91;4920752;29;20028;-86
2022/08/15 12:23:30;;;;;;;6.72;5.68;;;;;;;27.91;41.97;98714.88;4903688;29;20058;-85
2022/08/15 12:26:02;;;;;;;7.35;5.65;;;;;;;27.93;41.85;98720.09;4924016;29;20036;-84
2022/08/15 12:28:29;;;;;;;6.90;5.38;;;;;;;27.93;41.60;98720.94;4907993;29;20058;-83